createdAt,value
2022-10-08T00:00:53.858Z,100.00
2022-10-08T00:03:22.784Z,100.00
2022-10-08T00:06:08.087Z,100.00
2022-10-08T00:08:37.268Z,100.00
2022-10-08T00:11:07.920Z,100.00
2022-10-08T00:13:43.185Z,100.00
2022-10-08T00:16:15.325Z,100.00
2022-10-08T00:18:44.298Z,100.00
2022-10-08T00:21:34.697Z,100.00
2022-10-08T00:24:02.779Z,100.00
2022-10-08T00:26:32.619Z,100.00
2022-10-08T00:29:04.272Z,100.00
2022-10-08T00:31:36.862Z,100.00
2022-10-08T00:34:08.331Z,100.00
2022-10-08T00:36:37.248Z,100.00
2022-10-08T00:39:14.044Z,100.00
2022-10-08T00:41:42.272Z,100.00
2022-10-08T00:44:46.233Z,100.00
2022-10-08T00:47:31.361Z,100.00
2022-10-08T00:50:33.036Z,100.00
2022-10-08T00:53:08.733Z,100.00
2022-10-08T00:55:43.151Z,100.00
2022-10-08T00:58:19.009Z,100.00
2022-10-08T01:00:46.252Z,100.00
2022-10-08T01:03:13.235Z,100.00
2022-10-08T01:06:14.591Z,100.00
2022-10-08T01:09:09.340Z,100.00
2022-10-08T01:11:53.592Z,100.00
2022-10-08T01:14:29.229Z,100.00
2022-10-08T01:17:17.364Z,100.00
2022-10-08T01:19:46.891Z,100.00
2022-10-08T01:22:13.550Z,100.00
2022-10-08T01:25:09.370Z,100.00
2022-10-08T01:28:05.285Z,100.00
2022-10-08T01:30:35.473Z,100.00
2022-10-08T01:33:14.423Z,100.00
2022-10-08T01:35:45.920Z,100.00
2022-10-08T01:38:16.642Z,100.00
2022-10-08T01:40:45.355Z,100.00
2022-10-08T01:43:15.711Z,100.00
2022-10-08T01:45:49.358Z,100.00
2022-10-08T01:48:23.345Z,100.00
2022-10-08T01:51:04.231Z,100.00
2022-10-08T01:53:37.588Z,100.00
2022-10-08T01:56:07.925Z,100.00
2022-10-08T01:58:40.596Z,100.00
2022-10-08T02:01:12.270Z,100.00
2022-10-08T02:03:59.058Z,100.00
2022-10-08T02:06:27.189Z,100.00
2022-10-08T02:08:54.074Z,100.00
2022-10-08T02:11:20.926Z,100.00
2022-10-08T02:13:47.625Z,100.00
2022-10-08T02:16:24.201Z,100.00
2022-10-08T02:19:02.976Z,100.00
2022-10-08T02:21:30.982Z,100.00
2022-10-08T02:24:09.536Z,100.00
2022-10-08T02:26:42.031Z,100.00
2022-10-08T02:29:16.782Z,100.00
2022-10-08T02:31:43.533Z,100.00
2022-10-08T02:34:30.011Z,100.00
2022-10-08T02:37:37.326Z,100.00
2022-10-08T02:40:10.119Z,100.00
2022-10-08T02:42:43.294Z,100.00
2022-10-08T02:45:19.039Z,100.00
2022-10-08T02:47:50.434Z,100.00
2022-10-08T02:50:23.174Z,100.00
2022-10-08T02:52:51.200Z,100.00
2022-10-08T02:55:30.550Z,100.00
2022-10-08T02:58:04.962Z,100.00
2022-10-08T03:00:38.615Z,100.00
2022-10-08T03:03:19.507Z,100.00
2022-10-08T03:05:48.977Z,100.00
2022-10-08T03:08:16.678Z,100.00
2022-10-08T03:10:44.311Z,100.00
2022-10-08T03:13:12.744Z,100.00
2022-10-08T03:15:41.304Z,100.00
2022-10-08T03:18:11.014Z,100.00
2022-10-08T03:20:46.733Z,100.00
2022-10-08T03:23:16.996Z,100.00
2022-10-08T03:25:43.967Z,100.00
2022-10-08T03:28:10.928Z,100.00
2022-10-08T03:30:37.776Z,100.00
2022-10-08T03:33:04.570Z,100.00
2022-10-08T03:35:32.125Z,100.00
2022-10-08T03:37:58.815Z,100.00
2022-10-08T03:40:25.512Z,100.00
2022-10-08T03:42:52.275Z,100.00
2022-10-08T03:45:18.988Z,100.00
2022-10-08T03:47:51.465Z,100.00
2022-10-08T03:50:19.244Z,100.00
2022-10-08T03:52:46.163Z,100.00
2022-10-08T03:55:13.172Z,100.00
2022-10-08T03:57:39.923Z,100.00
2022-10-08T04:00:07.202Z,100.00
2022-10-08T04:02:34.002Z,100.00
2022-10-08T04:05:00.819Z,100.00
2022-10-08T04:07:27.759Z,100.00
2022-10-08T04:09:54.441Z,100.00
2022-10-08T04:12:21.121Z,100.00
2022-10-08T04:14:47.827Z,100.00
2022-10-08T04:17:14.521Z,100.00
2022-10-08T04:19:41.267Z,100.00
2022-10-08T04:22:07.942Z,100.00
2022-10-08T04:24:34.636Z,100.00
2022-10-08T04:27:01.324Z,100.00
2022-10-08T04:29:28.032Z,100.00
2022-10-08T04:31:54.719Z,100.00
2022-10-08T04:34:21.421Z,100.00
2022-10-08T04:36:48.140Z,100.00
2022-10-08T04:39:14.835Z,100.00
2022-10-08T04:41:41.780Z,100.00
2022-10-08T04:44:08.490Z,100.00
2022-10-08T04:46:35.212Z,100.00
2022-10-08T04:49:02.297Z,100.00
2022-10-08T04:51:28.979Z,100.00
2022-10-08T04:53:57.016Z,100.00
2022-10-08T04:56:26.324Z,100.00
2022-10-08T04:58:55.242Z,100.00
2022-10-08T05:01:22.835Z,100.00
2022-10-08T05:03:51.789Z,100.00
2022-10-08T05:06:22.084Z,100.00
2022-10-08T05:08:49.793Z,100.00
2022-10-08T05:11:17.303Z,100.00
2022-10-08T05:13:48.844Z,100.00
2022-10-08T05:16:17.346Z,100.00
2022-10-08T05:18:44.305Z,100.00
2022-10-08T05:21:17.216Z,100.00
2022-10-08T05:23:44.348Z,100.00
2022-10-08T05:26:25.826Z,100.00
2022-10-08T05:29:07.500Z,100.00
2022-10-08T05:31:37.485Z,100.00
2022-10-08T05:34:04.534Z,100.00
2022-10-08T05:36:33.774Z,100.00
2022-10-08T05:39:01.653Z,100.00
2022-10-08T05:41:31.107Z,100.00
2022-10-08T05:43:58.933Z,100.00
2022-10-08T05:46:27.183Z,100.00
2022-10-08T05:48:59.065Z,100.00
2022-10-08T05:51:26.867Z,100.00
2022-10-08T05:53:55.116Z,100.00
2022-10-08T05:56:23.338Z,100.00
2022-10-08T05:58:51.040Z,100.00
2022-10-08T06:01:23.467Z,100.00
2022-10-08T06:03:55.575Z,100.00
2022-10-08T06:06:24.244Z,100.00
2022-10-08T06:09:00.828Z,100.00
2022-10-08T06:11:31.624Z,100.00
2022-10-08T06:14:00.253Z,100.00
2022-10-08T06:16:28.265Z,100.00
2022-10-08T06:18:55.302Z,100.00
2022-10-08T06:21:24.105Z,100.00
2022-10-08T06:23:53.405Z,100.00
2022-10-08T06:26:22.260Z,100.00
2022-10-08T06:28:49.999Z,100.00
2022-10-08T06:31:17.930Z,100.00
2022-10-08T06:33:45.612Z,100.00
2022-10-08T06:36:20.544Z,100.00
2022-10-08T06:38:51.170Z,100.00
2022-10-08T06:41:17.957Z,100.00
2022-10-08T06:43:44.744Z,100.00
2022-10-08T06:46:11.604Z,100.00
2022-10-08T06:48:38.598Z,100.00
2022-10-08T06:51:12.442Z,100.00
2022-10-08T06:53:40.216Z,100.00
2022-10-08T06:56:11.096Z,100.00
2022-10-08T06:58:38.409Z,100.00
2022-10-08T07:01:09.233Z,100.00
2022-10-08T07:03:37.031Z,100.00
2022-10-08T07:06:11.665Z,100.00
2022-10-08T07:08:38.846Z,100.00
2022-10-08T07:11:13.237Z,100.00
2022-10-08T07:13:51.708Z,100.00
2022-10-08T07:16:23.242Z,100.00
2022-10-08T07:18:52.635Z,100.00
2022-10-08T07:21:23.796Z,100.00
2022-10-08T07:23:56.006Z,100.00
2022-10-08T07:26:28.401Z,100.00
2022-10-08T07:29:04.155Z,100.00
2022-10-08T07:31:35.852Z,100.00
2022-10-08T07:34:06.275Z,100.00
2022-10-08T07:36:34.271Z,100.00
2022-10-08T07:39:04.867Z,100.00
2022-10-08T07:41:32.425Z,100.00
2022-10-08T07:44:02.777Z,100.00
2022-10-08T07:46:33.592Z,100.00
2022-10-08T07:49:05.144Z,100.00
2022-10-08T07:51:34.709Z,100.00
2022-10-08T07:54:03.165Z,100.00
2022-10-08T07:56:31.532Z,100.00
2022-10-08T07:59:01.089Z,100.00
2022-10-08T08:01:29.921Z,100.00
2022-10-08T08:04:02.277Z,100.00
2022-10-08T08:06:30.277Z,100.00
2022-10-08T08:08:57.197Z,100.00
2022-10-08T08:11:24.913Z,100.00
2022-10-08T08:13:52.282Z,100.00
2022-10-08T08:16:27.447Z,100.00
2022-10-08T08:18:56.718Z,100.00
2022-10-08T08:21:29.037Z,100.00
2022-10-08T08:24:00.228Z,100.00
2022-10-08T08:26:35.827Z,100.00
2022-10-08T08:29:06.769Z,100.00
2022-10-08T08:31:44.229Z,100.00
2022-10-08T08:34:17.096Z,100.00
2022-10-08T08:36:47.051Z,100.00
2022-10-08T08:39:20.193Z,100.00
2022-10-08T08:42:10.236Z,100.00
2022-10-08T08:44:43.775Z,100.00
2022-10-08T08:47:28.232Z,100.00
2022-10-08T08:50:00.366Z,100.00
2022-10-08T08:52:36.356Z,100.00
2022-10-08T08:55:16.175Z,100.00
2022-10-08T08:57:57.600Z,100.00
2022-10-08T09:00:39.949Z,100.00
2022-10-08T09:03:13.606Z,100.00
2022-10-08T09:05:44.943Z,100.00
2022-10-08T09:08:31.221Z,100.00
2022-10-08T09:11:03.446Z,100.00
2022-10-08T09:13:50.541Z,100.00
2022-10-08T09:16:17.941Z,100.00
2022-10-08T09:18:50.367Z,100.00
2022-10-08T09:21:18.647Z,100.00
2022-10-08T09:23:47.870Z,100.00
2022-10-08T09:26:19.731Z,100.00
2022-10-08T09:28:48.374Z,100.00
2022-10-08T09:31:36.080Z,100.00
2022-10-08T09:34:06.387Z,100.00
2022-10-08T09:36:33.671Z,100.00
2022-10-08T09:39:02.767Z,100.00
2022-10-08T09:41:30.350Z,100.00
2022-10-08T09:44:23.523Z,100.00
2022-10-08T09:47:06.158Z,100.00
2022-10-08T09:49:36.546Z,100.00
2022-10-08T09:52:16.718Z,100.00
2022-10-08T09:55:17.185Z,100.00
2022-10-08T09:57:46.969Z,100.00
2022-10-08T10:00:28.816Z,100.00
2022-10-08T10:02:57.459Z,100.00
2022-10-08T10:05:32.217Z,100.00
2022-10-08T10:07:59.293Z,100.00
2022-10-08T10:10:28.935Z,100.00
2022-10-08T10:13:20.252Z,100.00
2022-10-08T10:15:53.640Z,100.00
2022-10-08T10:18:27.671Z,100.00
2022-10-08T10:21:01.367Z,100.00
2022-10-08T10:23:33.895Z,100.00
2022-10-08T10:26:24.247Z,100.00
2022-10-08T10:28:59.329Z,100.00
2022-10-08T10:31:38.068Z,100.00
2022-10-08T10:34:09.256Z,100.00
2022-10-08T10:36:43.227Z,100.00
2022-10-08T10:39:52.747Z,100.00
2022-10-08T10:42:23.231Z,100.00
2022-10-08T10:44:54.336Z,100.00
2022-10-08T10:47:27.118Z,100.00
2022-10-08T10:49:56.689Z,100.00
2022-10-08T10:53:13.885Z,100.00
2022-10-08T10:55:49.360Z,100.00
2022-10-08T10:58:25.143Z,100.00
2022-10-08T11:01:06.790Z,100.00
2022-10-08T11:03:48.426Z,100.00
2022-10-08T11:06:36.129Z,100.00
2022-10-08T11:09:21.110Z,100.00
2022-10-08T11:11:54.480Z,100.00
2022-10-08T11:14:26.954Z,100.00
2022-10-08T11:17:08.062Z,100.00
2022-10-08T11:19:53.540Z,100.00
2022-10-08T11:22:33.609Z,100.00
2022-10-08T11:25:20.932Z,100.00
2022-10-08T11:28:06.269Z,100.00
2022-10-08T11:30:48.362Z,100.00
2022-10-08T11:33:17.250Z,100.00
2022-10-08T11:36:10.052Z,100.00
2022-10-08T11:38:45.093Z,100.00
2022-10-08T11:41:43.931Z,93.57
2022-10-08T11:44:12.165Z,92.03
2022-10-08T11:46:38.920Z,93.30
2022-10-08T11:49:14.348Z,86.84
2022-10-08T11:51:45.863Z,91.03
2022-10-08T11:54:31.229Z,94.12
2022-10-08T11:58:06.314Z,94.63
2022-10-08T12:00:45.457Z,93.56
2022-10-08T12:03:27.305Z,94.63
2022-10-08T12:06:12.734Z,91.98
2022-10-08T12:08:57.828Z,88.31
2022-10-08T12:11:37.451Z,81.92
2022-10-08T12:14:13.259Z,88.36
2022-10-08T12:16:49.014Z,84.92
2022-10-08T12:19:36.856Z,78.91
2022-10-08T12:22:17.618Z,76.23
2022-10-08T12:24:49.735Z,79.54
2022-10-08T12:27:17.156Z,76.33
2022-10-08T12:30:05.169Z,75.00
2022-10-08T12:32:44.212Z,68.15
2022-10-08T12:35:37.584Z,75.62
2022-10-08T12:38:07.287Z,73.33
2022-10-08T12:40:48.863Z,72.61
2022-10-08T12:43:54.318Z,74.68
2022-10-08T12:46:27.031Z,78.36
2022-10-08T12:49:00.557Z,70.86
2022-10-08T12:51:45.752Z,72.61
2022-10-08T12:54:40.037Z,69.33
2022-10-08T12:57:13.068Z,68.75
2022-10-08T12:59:41.827Z,71.36
2022-10-08T13:02:28.149Z,71.23
2022-10-08T13:04:54.960Z,67.26
2022-10-08T13:07:33.864Z,69.72
2022-10-08T13:10:16.916Z,65.91
2022-10-08T13:12:43.801Z,72.85
2022-10-08T13:15:25.111Z,69.68
2022-10-08T13:17:54.948Z,72.73
2022-10-08T13:20:23.968Z,73.31
2022-10-08T13:22:51.176Z,71.01
2022-10-08T13:25:39.127Z,68.33
2022-10-08T13:28:09.935Z,69.98
2022-10-08T13:30:36.751Z,73.05
2022-10-08T13:33:24.941Z,70.67
2022-10-08T13:35:56.250Z,74.47
2022-10-08T13:38:32.761Z,65.52
2022-10-08T13:41:05.918Z,63.57
2022-10-08T13:43:35.617Z,60.46
2022-10-08T13:46:02.320Z,66.29
2022-10-08T13:48:29.056Z,68.79
2022-10-08T13:50:57.022Z,69.27
2022-10-08T13:53:26.519Z,71.32
2022-10-08T13:55:53.433Z,70.97
2022-10-08T13:58:20.733Z,74.58
2022-10-08T14:00:48.254Z,77.31
2022-10-08T14:03:15.148Z,73.17
2022-10-08T14:05:44.443Z,73.32
2022-10-08T14:08:29.072Z,71.69
2022-10-08T14:10:59.147Z,74.72
2022-10-08T14:13:26.591Z,74.79
2022-10-08T14:15:54.279Z,76.79
2022-10-08T14:18:21.062Z,80.65
2022-10-08T14:20:50.868Z,80.58
2022-10-08T14:23:17.649Z,79.85
2022-10-08T14:25:44.401Z,79.43
2022-10-08T14:28:11.206Z,80.68
2022-10-08T14:30:37.916Z,84.19
2022-10-08T14:33:08.926Z,79.13
2022-10-08T14:35:37.823Z,84.22
2022-10-08T14:38:04.505Z,86.29
2022-10-08T14:40:31.215Z,87.23
2022-10-08T14:42:57.730Z,86.93
2022-10-08T14:45:24.527Z,91.16
2022-10-08T14:47:51.277Z,89.80
2022-10-08T14:50:17.862Z,91.60
2022-10-08T14:52:44.969Z,93.15
2022-10-08T14:55:12.288Z,95.18
2022-10-08T14:57:38.984Z,95.42
2022-10-08T15:00:06.042Z,95.31
2022-10-08T15:02:34.365Z,97.02
2022-10-08T15:05:01.754Z,97.93
2022-10-08T15:07:28.984Z,98.77
2022-10-08T15:09:55.747Z,99.28
2022-10-08T15:12:22.291Z,97.53
2022-10-08T15:14:48.985Z,99.90
2022-10-08T15:17:15.523Z,98.58
2022-10-08T15:19:42.236Z,99.71
2022-10-08T15:22:08.847Z,100.00
2022-10-08T15:24:35.874Z,100.00
2022-10-08T15:27:02.573Z,100.00
2022-10-08T15:29:29.137Z,100.00
2022-10-08T15:31:55.956Z,100.00
2022-10-08T15:34:22.537Z,100.00
2022-10-08T15:36:49.368Z,100.00
2022-10-08T15:39:17.328Z,100.00
2022-10-08T15:41:47.870Z,100.00
2022-10-08T15:44:20.500Z,100.00
2022-10-08T15:46:50.100Z,100.00
2022-10-08T15:49:17.170Z,100.00
2022-10-08T15:51:43.981Z,100.00
2022-10-08T15:54:10.565Z,100.00
2022-10-08T15:56:37.464Z,100.00
2022-10-08T15:59:04.594Z,100.00
2022-10-08T16:01:32.448Z,100.00
2022-10-08T16:04:00.255Z,100.00
2022-10-08T16:06:31.753Z,100.00
2022-10-08T16:08:58.825Z,100.00
2022-10-08T16:11:28.863Z,100.00
2022-10-08T16:14:01.997Z,100.00
2022-10-08T16:16:29.250Z,100.00
2022-10-08T16:19:09.193Z,100.00
2022-10-08T16:21:37.378Z,100.00
2022-10-08T16:24:04.539Z,100.00
2022-10-08T16:26:35.535Z,100.00
2022-10-08T16:29:05.413Z,100.00
2022-10-08T16:31:34.020Z,100.00
2022-10-08T16:34:03.022Z,100.00
2022-10-08T16:36:31.316Z,100.00
2022-10-08T16:38:58.696Z,100.00
2022-10-08T16:41:27.565Z,100.00
2022-10-08T16:43:58.333Z,100.00
2022-10-08T16:46:35.008Z,100.00
2022-10-08T16:49:06.247Z,100.00
2022-10-08T16:51:36.023Z,100.00
2022-10-08T16:54:03.933Z,100.00
2022-10-08T16:56:33.368Z,100.00
2022-10-08T16:59:04.439Z,100.00
2022-10-08T17:01:31.289Z,100.00
2022-10-08T17:03:58.392Z,100.00
2022-10-08T17:06:26.752Z,100.00
2022-10-08T17:08:54.183Z,100.00
2022-10-08T17:11:21.966Z,100.00
2022-10-08T17:13:51.457Z,100.00
2022-10-08T17:16:20.373Z,100.00
2022-10-08T17:18:49.599Z,100.00
2022-10-08T17:21:16.395Z,100.00
2022-10-08T17:23:43.172Z,100.00
2022-10-08T17:26:13.375Z,100.00
2022-10-08T17:28:42.939Z,100.00
2022-10-08T17:31:13.056Z,100.00
2022-10-08T17:33:40.797Z,100.00
2022-10-08T17:36:09.491Z,100.00
2022-10-08T17:38:36.752Z,100.00
2022-10-08T17:41:25.052Z,100.00
2022-10-08T17:43:53.175Z,100.00
2022-10-08T17:46:31.264Z,100.00
2022-10-08T17:48:58.941Z,100.00
2022-10-08T17:51:28.371Z,100.00
2022-10-08T17:53:59.477Z,100.00
2022-10-08T17:56:26.900Z,100.00
2022-10-08T17:58:53.875Z,100.00
2022-10-08T18:01:26.092Z,100.00
2022-10-08T18:03:55.370Z,100.00
2022-10-08T18:06:22.592Z,100.00
2022-10-08T18:08:54.415Z,100.00
2022-10-08T18:11:21.440Z,100.00
2022-10-08T18:13:48.159Z,100.00
2022-10-08T18:16:16.635Z,100.00
2022-10-08T18:18:44.816Z,100.00
2022-10-08T18:21:13.359Z,100.00
2022-10-08T18:23:43.833Z,100.00
2022-10-08T18:26:17.472Z,100.00
2022-10-08T18:28:45.605Z,100.00
2022-10-08T18:31:14.040Z,100.00
2022-10-08T18:33:43.669Z,100.00
2022-10-08T18:36:15.660Z,100.00
2022-10-08T18:38:44.426Z,100.00
2022-10-08T18:41:22.568Z,100.00
2022-10-08T18:43:50.259Z,100.00
2022-10-08T18:46:19.259Z,100.00
2022-10-08T18:48:46.504Z,100.00
2022-10-08T18:51:16.981Z,100.00
2022-10-08T18:53:44.910Z,100.00
2022-10-08T18:56:14.574Z,100.00
2022-10-08T18:58:41.829Z,100.00
2022-10-08T19:01:17.040Z,100.00
2022-10-08T19:03:53.419Z,100.00
2022-10-08T19:06:22.408Z,100.00
2022-10-08T19:08:49.377Z,100.00
2022-10-08T19:11:19.069Z,100.00
2022-10-08T19:13:46.268Z,100.00
2022-10-08T19:16:15.954Z,100.00
2022-10-08T19:18:51.381Z,100.00
2022-10-08T19:21:18.636Z,100.00
2022-10-08T19:23:45.553Z,100.00
2022-10-08T19:26:12.500Z,100.00
2022-10-08T19:28:40.944Z,100.00
2022-10-08T19:31:19.475Z,100.00
2022-10-08T19:33:52.843Z,100.00
2022-10-08T19:36:20.730Z,100.00
2022-10-08T19:38:58.614Z,100.00
2022-10-08T19:41:26.261Z,100.00
2022-10-08T19:43:54.299Z,100.00
2022-10-08T19:46:21.714Z,100.00
2022-10-08T19:48:52.536Z,100.00
2022-10-08T19:51:19.575Z,100.00
2022-10-08T19:53:46.665Z,100.00
2022-10-08T19:56:13.977Z,100.00
2022-10-08T19:58:47.587Z,100.00
2022-10-08T20:01:21.289Z,100.00
2022-10-08T20:03:48.157Z,100.00
2022-10-08T20:06:23.154Z,100.00
2022-10-08T20:08:54.591Z,100.00
2022-10-08T20:11:21.515Z,100.00
2022-10-08T20:13:50.688Z,100.00
2022-10-08T20:16:20.217Z,100.00
2022-10-08T20:18:51.543Z,100.00
2022-10-08T20:21:19.271Z,100.00
2022-10-08T20:23:46.448Z,100.00
2022-10-08T20:26:19.705Z,100.00
2022-10-08T20:28:52.772Z,100.00
2022-10-08T20:31:24.914Z,100.00
2022-10-08T20:34:02.755Z,100.00
2022-10-08T20:36:29.833Z,100.00
2022-10-08T20:38:57.479Z,100.00
2022-10-08T20:41:30.438Z,100.00
2022-10-08T20:44:03.090Z,100.00
2022-10-08T20:46:31.219Z,100.00
2022-10-08T20:48:58.432Z,100.00
2022-10-08T20:51:26.177Z,100.00
2022-10-08T20:54:04.303Z,100.00
2022-10-08T20:56:37.124Z,100.00
2022-10-08T20:59:06.771Z,100.00
2022-10-08T21:01:37.681Z,100.00
2022-10-08T21:04:05.485Z,100.00
2022-10-08T21:06:37.600Z,100.00
2022-10-08T21:09:04.686Z,100.00
2022-10-08T21:11:31.490Z,100.00
2022-10-08T21:14:01.509Z,100.00
2022-10-08T21:16:31.648Z,100.00
2022-10-08T21:19:03.093Z,100.00
2022-10-08T21:21:31.802Z,100.00
2022-10-08T21:23:59.345Z,100.00
2022-10-08T21:26:28.406Z,100.00
2022-10-08T21:28:57.887Z,100.00
2022-10-08T21:31:25.930Z,100.00
2022-10-08T21:33:53.730Z,100.00
2022-10-08T21:36:25.244Z,100.00
2022-10-08T21:38:52.040Z,100.00
2022-10-08T21:41:20.192Z,100.00
2022-10-08T21:43:49.363Z,100.00
2022-10-08T21:46:18.668Z,100.00
2022-10-08T21:48:45.562Z,100.00
2022-10-08T21:51:20.153Z,100.00
2022-10-08T21:53:49.876Z,100.00
2022-10-08T21:56:19.913Z,100.00
2022-10-08T21:58:48.966Z,100.00
2022-10-08T22:01:32.540Z,100.00
2022-10-08T22:04:01.971Z,100.00
2022-10-08T22:06:30.372Z,100.00
2022-10-08T22:08:57.567Z,100.00
2022-10-08T22:11:24.355Z,100.00
2022-10-08T22:13:51.110Z,100.00
2022-10-08T22:16:19.662Z,100.00
2022-10-08T22:18:46.550Z,100.00
2022-10-08T22:21:19.179Z,100.00
2022-10-08T22:23:46.687Z,100.00
2022-10-08T22:26:21.397Z,100.00
2022-10-08T22:28:48.824Z,100.00
2022-10-08T22:31:17.515Z,100.00
2022-10-08T22:33:44.722Z,100.00
2022-10-08T22:36:12.685Z,100.00
2022-10-08T22:38:41.135Z,100.00
2022-10-08T22:41:13.489Z,100.00
2022-10-08T22:43:42.051Z,100.00
2022-10-08T22:46:11.484Z,100.00
2022-10-08T22:48:38.764Z,100.00
2022-10-08T22:51:11.980Z,100.00
2022-10-08T22:53:39.137Z,100.00
2022-10-08T22:56:25.987Z,100.00
2022-10-08T22:58:53.075Z,100.00
2022-10-08T23:01:21.937Z,100.00
2022-10-08T23:03:49.083Z,100.00
2022-10-08T23:06:17.103Z,100.00
2022-10-08T23:08:45.113Z,100.00
2022-10-08T23:11:12.797Z,100.00
2022-10-08T23:13:39.915Z,100.00
2022-10-08T23:16:10.784Z,100.00
2022-10-08T23:18:40.005Z,100.00
2022-10-08T23:21:12.504Z,100.00
2022-10-08T23:23:39.458Z,100.00
2022-10-08T23:26:07.365Z,100.00
2022-10-08T23:28:35.925Z,100.00
2022-10-08T23:31:13.126Z,100.00
2022-10-08T23:33:42.249Z,100.00
2022-10-08T23:36:11.312Z,100.00
2022-10-08T23:38:37.995Z,100.00
2022-10-08T23:41:07.400Z,100.00
2022-10-08T23:43:40.071Z,100.00
2022-10-08T23:46:08.805Z,100.00
2022-10-08T23:48:35.754Z,100.00
2022-10-08T23:51:03.608Z,100.00
2022-10-08T23:53:30.714Z,100.00
2022-10-08T23:55:57.277Z,100.00
2022-10-08T23:58:24.039Z,100.00
